Terminal Aerodrome Forecast
Issued by NWS Sterling, VA

Home | Current Version | Previous Version | Text Only | Print | Product List | Glossary On
Versions: 1 2 3 4 5 6 7 8 9 10 11 12 13 14 15 16 17 18 19
000
FTUS41 KLWX 291139
TAFIAD
TAF
KIAD 291139Z 2912/3018 VRB04KT P6SM BKN150
     FM292200 16005KT P6SM -SHRA OVC090
     FM300100 VRB04KT 4SM SHRA OVC035
     FM300500 VRB03KT 5SM -SHRA OVC015
     FM301400 30004KT P6SM -SHRA BKN060=

USA.gov is the U.S. government's official web portal to all federal, state and local government web resources and services.